Tuesday, January 23, 2018, 11:55 PM GMT
Back to Local

CYCX, Gagetown Can-Mil

Location: , , Canada Lat: 45.833
Local Time: 11:55 PM GMT (23:55 GMT) Lon: -66.433
Time Zone: GMT Elev: 167 ft

Show me the last for .
Show Coded

Time T Td Feel RH Dir Speed Gust Alt SLP Vis Weather Sky Remarks
2018-01-23 23:22 34 34 27 100 100° 8 - 29.57 29.58 3 RA BR SCT003 OVC012 Pressure falling rapidly
2018-01-23 23:00 32 32 25 100 100° 8 - 29.60 29.61 2 RA BR OVC002 Pressure falling rapidly
2018-01-23 22:47 32 32 26 100 90° 6 - 29.62 29.63 2 RA BR OVC002 Pressure falling rapidly
2018-01-23 22:00 32 30 27 92 30° 5 - 29.67 29.68 2 FZRA BR OVC002 None
2018-01-23 21:00 28 28 23 100 80° 5 - 29.72 29.73 3 -FZRA BR OVC003 Pressure falling rapidly
2018-01-23 20:34 28 27 22 92 70° 6 - 29.76 29.77 5 -FZRA BR OVC003 Pressure falling rapidly
2018-01-23 20:00 28 27 22 92 50° 6 - 29.80 29.81 2 -FZRA -PL BR OVC003 None
2018-01-23 19:00 25 23 13 92 70° 13 - 29.84 29.85 1 -FZRA -PL BR OVC003 Pressure falling rapidly
2018-01-23 18:00 21 19 14 92 60° 6 - 29.91 29.92 1 -FZRA -PL BR OVC003 Pressure falling rapidly
2018-01-23 17:24 21 18 13 85 60° 7 - 29.96 29.97 1 -FZDZ BR OVC004 Pressure falling rapidly
2018-01-23 17:00 19 18 9 92 60° 9 - 29.99 30.00 2 -FZDZ BR OVC005 Pressure falling rapidly
2018-01-23 16:00 18 14 7 85 70° 8 - 30.05 30.06 2 -FZRA -PL BR OVC008 Pressure falling rapidly
2018-01-23 15:00 18 14 7 85 60° 8 - 30.13 30.14 0 -FZRA -PL BR OVC007 None
2018-01-23 14:43 18 14 9 85 60° 6 - 30.14 30.15 1 -FZRA -PL BR OVC008 None
2018-01-23 14:27 16 14 5 92 60° 8 - 30.15 30.16 1 BR OVC012 None
2018-01-23 14:00 16 12 3 85 70° 10 - 30.15 30.16 1 -PL BR OVC012 None
2018-01-23 13:00 16 12 4 85 70° 9 - 30.20 30.21 2 -PL OVC008 None
2018-01-23 12:43 16 12 4 85 70° 9 - 30.21 30.23 1 -PL OVC008 None
2018-01-23 12:00 14 10 3 85 70° 8 - 30.24 30.25 0 -SN VV005 None
2018-01-23 11:00 14 10 0 85 70° 12 - 30.27 30.28 0 -SN VV006 None
2018-01-23 10:00 14 10 3 85 60° 8 - 30.31 30.32 1 -SN VV008 None
2018-01-23 09:36 14 10 3 85 60° 8 - 30.32 30.33 1 -SN VV008 None
2018-01-23 09:00 14 10 6 85 60° 5 - 30.35 30.36 0 -SN VV008 None
2018-01-23 08:31 14 9 8 78 60° 3 - 30.35 30.37 1 -SN VV008 None
2018-01-23 08:00 14 9 6 78 50° 5 - 30.35 30.37 3 -SN OVC020 None
2018-01-23 07:27 12 9 6 85 50° 3 - 30.37 30.38 2 -SN OVC020 None
2018-01-23 07:00 12 7 4 78 50° 5 - 30.37 30.39 1 -SN VV008 None
2018-01-23 06:23 14 5 8 66 40° 3 - 30.38 30.39 1 -SN VV010 None
2018-01-23 06:00 14 3 8 61 60° 3 - 30.38 30.40 6 -SN OVC020 None
2018-01-23 05:31 14 1 - 56 60° 2 - 30.40 30.42 12 -SN OVC020 None
2018-01-23 05:00 14 1 - 56 - Calm - 30.40 30.41 12 -SN OVC036 None
2018-01-23 04:36 14 1 - 56 - Calm - 30.40 30.42 12 -SN OVC038 None
2018-01-23 04:00 14 0 - 51 80° 2 - 30.41 30.42 15 OVC080 None
2018-01-23 03:00 14 0 - 51 50° 2 - 30.40 30.41 15 BKN090 None
2018-01-23 02:00 14 0 8 51 70° 3 - 30.41 30.42 15 BKN080 None
2018-01-23 01:00 16 0 9 47 30° 5 - 30.43 30.44 15 BKN075 None
2018-01-23 00:00 16 0 9 47 360° 5 - 30.43 30.44 15 BKN075 None

Support USWX by starting your Amazon purchase here.